sensor_id;sensor_type;location;lat;lon;timestamp;P1;durP1;ratioP1;P2;durP2;ratioP2
419;SDS011;42600;54.408;13.016;2022-12-07T00:00:46;1.33;;;0.60;;
419;SDS011;42600;54.408;13.016;2022-12-07T00:03:12;1.77;;;0.70;;
419;SDS011;42600;54.408;13.016;2022-12-07T00:05:39;5.63;;;1.10;;
419;SDS011;42600;54.408;13.016;2022-12-07T00:08:05;2.13;;;1.10;;
419;SDS011;42600;54.408;13.016;2022-12-07T00:10:32;3.70;;;1.23;;
419;SDS011;42600;54.408;13.016;2022-12-07T00:12:59;3.57;;;1.13;;
419;SDS011;42600;54.408;13.016;2022-12-07T00:15:26;1.73;;;0.53;;
419;SDS011;42600;54.408;13.016;2022-12-07T00:17:54;3.03;;;1.10;;
419;SDS011;42600;54.408;13.016;2022-12-07T00:20:20;2.30;;;1.13;;
419;SDS011;42600;54.408;13.016;2022-12-07T00:22:47;1.60;;;0.90;;
419;SDS011;42600;54.408;13.016;2022-12-07T00:25:14;1.83;;;0.73;;
419;SDS011;42600;54.408;13.016;2022-12-07T00:27:40;1.73;;;1.23;;
419;SDS011;42600;54.408;13.016;2022-12-07T00:30:07;1.50;;;0.70;;
419;SDS011;42600;54.408;13.016;2022-12-07T00:32:34;1.60;;;1.37;;
419;SDS011;42600;54.408;13.016;2022-12-07T00:35:02;1.17;;;0.73;;
419;SDS011;42600;54.408;13.016;2022-12-07T00:37:29;3.97;;;1.10;;
419;SDS011;42600;54.408;13.016;2022-12-07T00:39:56;1.50;;;1.00;;
419;SDS011;42600;54.408;13.016;2022-12-07T00:42:22;3.83;;;1.77;;
419;SDS011;42600;54.408;13.016;2022-12-07T00:44:49;1.73;;;0.70;;
419;SDS011;42600;54.408;13.016;2022-12-07T00:47:15;1.47;;;0.70;;
419;SDS011;42600;54.408;13.016;2022-12-07T00:49:42;1.83;;;1.27;;
419;SDS011;42600;54.408;13.016;2022-12-07T00:52:10;3.77;;;1.07;;
419;SDS011;42600;54.408;13.016;2022-12-07T00:54:36;2.90;;;1.50;;
419;SDS011;42600;54.408;13.016;2022-12-07T00:57:03;3.77;;;1.20;;
419;SDS011;42600;54.408;13.016;2022-12-07T00:59:30;2.50;;;1.70;;
419;SDS011;42600;54.408;13.016;2022-12-07T01:01:56;3.63;;;1.13;;
419;SDS011;42600;54.408;13.016;2022-12-07T01:04:23;1.57;;;0.90;;
419;SDS011;42600;54.408;13.016;2022-12-07T01:06:49;2.20;;;0.73;;
419;SDS011;42600;54.408;13.016;2022-12-07T01:09:17;4.60;;;1.23;;
419;SDS011;42600;54.408;13.016;2022-12-07T01:11:44;1.10;;;0.70;;
419;SDS011;42600;54.408;13.016;2022-12-07T01:14:10;3.17;;;1.33;;
419;SDS011;42600;54.408;13.016;2022-12-07T01:16:38;4.67;;;2.13;;
419;SDS011;42600;54.408;13.016;2022-12-07T01:19:05;5.93;;;1.80;;
419;SDS011;42600;54.408;13.016;2022-12-07T01:21:32;2.00;;;1.20;;
419;SDS011;42600;54.408;13.016;2022-12-07T01:24:02;2.27;;;1.10;;
419;SDS011;42600;54.408;13.016;2022-12-07T01:26:31;3.47;;;1.10;;
419;SDS011;42600;54.408;13.016;2022-12-07T01:28:57;2.60;;;1.27;;
419;SDS011;42600;54.408;13.016;2022-12-07T01:31:26;2.17;;;1.00;;
419;SDS011;42600;54.408;13.016;2022-12-07T01:33:54;3.73;;;1.00;;
419;SDS011;42600;54.408;13.016;2022-12-07T01:36:22;1.50;;;0.80;;
419;SDS011;42600;54.408;13.016;2022-12-07T01:38:51;2.03;;;1.37;;
419;SDS011;42600;54.408;13.016;2022-12-07T01:41:21;1.67;;;1.10;;
419;SDS011;42600;54.408;13.016;2022-12-07T01:44:08;2.10;;;0.80;;
419;SDS011;42600;54.408;13.016;2022-12-07T01:46:46;2.97;;;1.53;;
419;SDS011;42600;54.408;13.016;2022-12-07T01:49:16;3.83;;;1.70;;
419;SDS011;42600;54.408;13.016;2022-12-07T01:51:48;4.30;;;1.57;;
419;SDS011;42600;54.408;13.016;2022-12-07T01:54:17;16.27;;;2.10;;
419;SDS011;42600;54.408;13.016;2022-12-07T01:56:47;4.20;;;1.90;;
419;SDS011;42600;54.408;13.016;2022-12-07T01:59:18;4.77;;;1.80;;
419;SDS011;42600;54.408;13.016;2022-12-07T02:01:47;3.40;;;2.00;;
419;SDS011;42600;54.408;13.016;2022-12-07T02:04:14;3.23;;;2.00;;
419;SDS011;42600;54.408;13.016;2022-12-07T02:06:41;6.30;;;2.00;;
419;SDS011;42600;54.408;13.016;2022-12-07T02:09:10;11.30;;;2.30;;
419;SDS011;42600;54.408;13.016;2022-12-07T02:11:37;2.80;;;1.40;;
419;SDS011;42600;54.408;13.016;2022-12-07T02:14:04;5.93;;;3.20;;
419;SDS011;42600;54.408;13.016;2022-12-07T02:16:34;11.90;;;3.63;;
419;SDS011;42600;54.408;13.016;2022-12-07T02:19:20;2.70;;;1.40;;
419;SDS011;42600;54.408;13.016;2022-12-07T02:22:18;2.13;;;1.30;;
419;SDS011;42600;54.408;13.016;2022-12-07T02:25:03;2.03;;;1.10;;
419;SDS011;42600;54.408;13.016;2022-12-07T02:27:43;3.50;;;1.63;;
419;SDS011;42600;54.408;13.016;2022-12-07T02:30:14;6.53;;;2.40;;
419;SDS011;42600;54.408;13.016;2022-12-07T02:32:48;6.93;;;2.50;;
419;SDS011;42600;54.408;13.016;2022-12-07T02:35:22;6.40;;;2.10;;
419;SDS011;42600;54.408;13.016;2022-12-07T02:37:54;3.83;;;2.43;;
419;SDS011;42600;54.408;13.016;2022-12-07T02:40:27;5.43;;;2.83;;
419;SDS011;42600;54.408;13.016;2022-12-07T02:42:58;4.23;;;2.73;;
419;SDS011;42600;54.408;13.016;2022-12-07T02:45:31;3.23;;;1.90;;
419;SDS011;42600;54.408;13.016;2022-12-07T02:48:00;2.53;;;1.50;;
419;SDS011;42600;54.408;13.016;2022-12-07T02:50:28;9.07;;;2.60;;
419;SDS011;42600;54.408;13.016;2022-12-07T02:52:54;6.10;;;2.70;;
419;SDS011;42600;54.408;13.016;2022-12-07T02:55:23;8.20;;;2.87;;
419;SDS011;42600;54.408;13.016;2022-12-07T02:58:00;5.67;;;3.43;;
419;SDS011;42600;54.408;13.016;2022-12-07T03:00:37;6.93;;;2.20;;
419;SDS011;42600;54.408;13.016;2022-12-07T03:03:12;3.30;;;1.10;;
419;SDS011;42600;54.408;13.016;2022-12-07T03:05:47;4.77;;;2.37;;
419;SDS011;42600;54.408;13.016;2022-12-07T03:08:23;9.90;;;3.47;;
419;SDS011;42600;54.408;13.016;2022-12-07T03:10:57;8.23;;;2.90;;
419;SDS011;42600;54.408;13.016;2022-12-07T03:13:28;7.80;;;2.37;;
419;SDS011;42600;54.408;13.016;2022-12-07T03:16:02;16.63;;;5.30;;
419;SDS011;42600;54.408;13.016;2022-12-07T03:18:34;7.63;;;2.47;;
419;SDS011;42600;54.408;13.016;2022-12-07T03:21:06;6.73;;;2.40;;
419;SDS011;42600;54.408;13.016;2022-12-07T03:23:37;4.90;;;1.83;;
419;SDS011;42600;54.408;13.016;2022-12-07T03:26:06;7.37;;;4.17;;
419;SDS011;42600;54.408;13.016;2022-12-07T03:28:37;10.20;;;2.60;;
419;SDS011;42600;54.408;13.016;2022-12-07T03:31:10;6.87;;;3.30;;
419;SDS011;42600;54.408;13.016;2022-12-07T03:33:42;2.93;;;2.00;;
419;SDS011;42600;54.408;13.016;2022-12-07T03:36:15;6.63;;;3.07;;
419;SDS011;42600;54.408;13.016;2022-12-07T03:38:46;5.63;;;3.07;;
419;SDS011;42600;54.408;13.016;2022-12-07T03:41:18;12.33;;;3.30;;
419;SDS011;42600;54.408;13.016;2022-12-07T03:43:50;6.50;;;2.73;;
419;SDS011;42600;54.408;13.016;2022-12-07T03:46:21;6.00;;;2.50;;
419;SDS011;42600;54.408;13.016;2022-12-07T03:48:54;7.53;;;2.70;;
419;SDS011;42600;54.408;13.016;2022-12-07T03:51:26;5.70;;;3.27;;
419;SDS011;42600;54.408;13.016;2022-12-07T03:54:00;3.67;;;2.60;;
419;SDS011;42600;54.408;13.016;2022-12-07T03:56:34;8.47;;;3.23;;
419;SDS011;42600;54.408;13.016;2022-12-07T03:59:01;10.20;;;2.73;;
419;SDS011;42600;54.408;13.016;2022-12-07T04:01:29;5.47;;;2.30;;
419;SDS011;42600;54.408;13.016;2022-12-07T04:03:57;3.23;;;2.00;;
419;SDS011;42600;54.408;13.016;2022-12-07T04:06:24;3.50;;;2.33;;
419;SDS011;42600;54.408;13.016;2022-12-07T04:08:50;2.90;;;1.67;;
419;SDS011;42600;54.408;13.016;2022-12-07T04:11:17;9.13;;;4.00;;
419;SDS011;42600;54.408;13.016;2022-12-07T04:13:44;10.70;;;3.70;;
419;SDS011;42600;54.408;13.016;2022-12-07T04:16:29;4.07;;;1.80;;
419;SDS011;42600;54.408;13.016;2022-12-07T04:18:56;5.40;;;2.13;;
419;SDS011;42600;54.408;13.016;2022-12-07T04:21:22;7.47;;;3.03;;
419;SDS011;42600;54.408;13.016;2022-12-07T04:23:49;5.97;;;2.80;;
419;SDS011;42600;54.408;13.016;2022-12-07T04:26:15;4.07;;;1.40;;
419;SDS011;42600;54.408;13.016;2022-12-07T04:28:42;7.23;;;2.10;;
419;SDS011;42600;54.408;13.016;2022-12-07T04:31:08;2.70;;;1.57;;
419;SDS011;42600;54.408;13.016;2022-12-07T04:33:36;10.77;;;2.17;;
419;SDS011;42600;54.408;13.016;2022-12-07T04:36:03;10.13;;;3.60;;
419;SDS011;42600;54.408;13.016;2022-12-07T04:38:30;5.40;;;2.60;;
419;SDS011;42600;54.408;13.016;2022-12-07T04:40:57;10.37;;;3.87;;
419;SDS011;42600;54.408;13.016;2022-12-07T04:43:23;18.40;;;3.10;;
419;SDS011;42600;54.408;13.016;2022-12-07T04:45:50;7.10;;;3.33;;
419;SDS011;42600;54.408;13.016;2022-12-07T04:48:16;3.07;;;1.60;;
419;SDS011;42600;54.408;13.016;2022-12-07T04:50:44;5.67;;;2.47;;
419;SDS011;42600;54.408;13.016;2022-12-07T04:53:13;7.90;;;2.57;;
419;SDS011;42600;54.408;13.016;2022-12-07T04:55:40;5.60;;;2.20;;
419;SDS011;42600;54.408;13.016;2022-12-07T04:58:06;3.50;;;1.70;;
419;SDS011;42600;54.408;13.016;2022-12-07T05:00:33;8.90;;;4.83;;
419;SDS011;42600;54.408;13.016;2022-12-07T05:03:00;6.97;;;3.50;;
419;SDS011;42600;54.408;13.016;2022-12-07T05:05:26;11.23;;;2.60;;
419;SDS011;42600;54.408;13.016;2022-12-07T05:07:54;5.17;;;2.30;;
419;SDS011;42600;54.408;13.016;2022-12-07T05:10:21;6.17;;;1.90;;
419;SDS011;42600;54.408;13.016;2022-12-07T05:12:47;7.37;;;3.23;;
419;SDS011;42600;54.408;13.016;2022-12-07T05:15:14;3.87;;;2.30;;
419;SDS011;42600;54.408;13.016;2022-12-07T05:17:41;9.07;;;3.37;;
419;SDS011;42600;54.408;13.016;2022-12-07T05:20:08;7.20;;;2.60;;
419;SDS011;42600;54.408;13.016;2022-12-07T05:22:35;6.10;;;1.90;;
419;SDS011;42600;54.408;13.016;2022-12-07T05:25:04;5.90;;;2.20;;
419;SDS011;42600;54.408;13.016;2022-12-07T05:27:30;7.30;;;2.57;;
419;SDS011;42600;54.408;13.016;2022-12-07T05:29:57;3.23;;;1.90;;
419;SDS011;42600;54.408;13.016;2022-12-07T05:32:23;5.13;;;2.07;;
419;SDS011;42600;54.408;13.016;2022-12-07T05:34:50;3.17;;;2.10;;
419;SDS011;42600;54.408;13.016;2022-12-07T05:37:17;3.67;;;2.10;;
419;SDS011;42600;54.408;13.016;2022-12-07T05:39:43;5.60;;;2.43;;
419;SDS011;42600;54.408;13.016;2022-12-07T05:42:11;6.67;;;1.90;;
419;SDS011;42600;54.408;13.016;2022-12-07T05:44:38;5.07;;;1.73;;
419;SDS011;42600;54.408;13.016;2022-12-07T05:47:05;4.70;;;1.83;;
419;SDS011;42600;54.408;13.016;2022-12-07T05:49:31;6.87;;;1.93;;
419;SDS011;42600;54.408;13.016;2022-12-07T05:51:58;9.20;;;3.20;;
419;SDS011;42600;54.408;13.016;2022-12-07T05:54:25;7.83;;;3.40;;
419;SDS011;42600;54.408;13.016;2022-12-07T05:56:51;8.10;;;2.20;;
419;SDS011;42600;54.408;13.016;2022-12-07T05:59:19;2.47;;;1.63;;
419;SDS011;42600;54.408;13.016;2022-12-07T06:01:48;3.50;;;1.90;;
419;SDS011;42600;54.408;13.016;2022-12-07T06:04:15;5.23;;;2.43;;
419;SDS011;42600;54.408;13.016;2022-12-07T06:06:41;9.70;;;3.13;;
419;SDS011;42600;54.408;13.016;2022-12-07T06:09:08;4.57;;;2.00;;
419;SDS011;42600;54.408;13.016;2022-12-07T06:11:34;4.97;;;2.80;;
419;SDS011;42600;54.408;13.016;2022-12-07T06:14:20;5.90;;;1.67;;
419;SDS011;42600;54.408;13.016;2022-12-07T06:16:46;5.13;;;2.60;;
419;SDS011;42600;54.408;13.016;2022-12-07T06:19:13;10.27;;;3.77;;
419;SDS011;42600;54.408;13.016;2022-12-07T06:21:39;3.77;;;1.87;;
419;SDS011;42600;54.408;13.016;2022-12-07T06:24:06;5.43;;;2.30;;
419;SDS011;42600;54.408;13.016;2022-12-07T06:26:34;4.77;;;1.93;;
419;SDS011;42600;54.408;13.016;2022-12-07T06:29:01;7.33;;;3.87;;
419;SDS011;42600;54.408;13.016;2022-12-07T06:31:28;5.90;;;2.20;;
419;SDS011;42600;54.408;13.016;2022-12-07T06:33:57;5.87;;;1.93;;
419;SDS011;42600;54.408;13.016;2022-12-07T06:36:24;5.70;;;2.47;;
419;SDS011;42600;54.408;13.016;2022-12-07T06:38:51;10.33;;;3.17;;
419;SDS011;42600;54.408;13.016;2022-12-07T06:41:17;10.37;;;3.97;;
419;SDS011;42600;54.408;13.016;2022-12-07T06:43:44;5.50;;;2.73;;
419;SDS011;42600;54.408;13.016;2022-12-07T06:46:11;7.07;;;2.80;;
419;SDS011;42600;54.408;13.016;2022-12-07T06:48:39;11.37;;;2.87;;
419;SDS011;42600;54.408;13.016;2022-12-07T06:51:05;8.60;;;2.53;;
419;SDS011;42600;54.408;13.016;2022-12-07T06:53:32;4.23;;;2.70;;
419;SDS011;42600;54.408;13.016;2022-12-07T06:55:59;10.43;;;4.17;;
419;SDS011;42600;54.408;13.016;2022-12-07T06:58:25;3.23;;;2.07;;
419;SDS011;42600;54.408;13.016;2022-12-07T07:00:52;6.23;;;3.53;;
419;SDS011;42600;54.408;13.016;2022-12-07T07:03:19;3.60;;;1.53;;
419;SDS011;42600;54.408;13.016;2022-12-07T07:05:47;6.30;;;2.10;;
419;SDS011;42600;54.408;13.016;2022-12-07T07:08:14;8.53;;;2.53;;
419;SDS011;42600;54.408;13.016;2022-12-07T07:10:40;5.77;;;3.23;;
419;SDS011;42600;54.408;13.016;2022-12-07T07:13:07;8.10;;;2.37;;
419;SDS011;42600;54.408;13.016;2022-12-07T07:15:34;3.00;;;1.77;;
419;SDS011;42600;54.408;13.016;2022-12-07T07:18:04;6.83;;;3.57;;
419;SDS011;42600;54.408;13.016;2022-12-07T07:20:30;4.57;;;1.33;;
419;SDS011;42600;54.408;13.016;2022-12-07T07:22:58;5.50;;;2.87;;
419;SDS011;42600;54.408;13.016;2022-12-07T07:25:25;5.60;;;3.50;;
419;SDS011;42600;54.408;13.016;2022-12-07T07:27:51;5.03;;;2.23;;
419;SDS011;42600;54.408;13.016;2022-12-07T07:30:18;7.73;;;3.67;;
419;SDS011;42600;54.408;13.016;2022-12-07T07:32:44;14.47;;;3.30;;
419;SDS011;42600;54.408;13.016;2022-12-07T07:35:11;8.20;;;3.23;;
419;SDS011;42600;54.408;13.016;2022-12-07T07:37:39;6.93;;;2.60;;
419;SDS011;42600;54.408;13.016;2022-12-07T07:40:07;6.40;;;2.87;;
419;SDS011;42600;54.408;13.016;2022-12-07T07:42:34;4.07;;;2.03;;
419;SDS011;42600;54.408;13.016;2022-12-07T07:45:01;10.33;;;3.80;;
419;SDS011;42600;54.408;13.016;2022-12-07T07:47:28;8.43;;;2.63;;
419;SDS011;42600;54.408;13.016;2022-12-07T07:49:54;8.97;;;3.40;;
419;SDS011;42600;54.408;13.016;2022-12-07T07:52:22;9.37;;;3.57;;
419;SDS011;42600;54.408;13.016;2022-12-07T07:54:48;9.90;;;4.40;;
419;SDS011;42600;54.408;13.016;2022-12-07T07:57:17;7.83;;;2.03;;
419;SDS011;42600;54.408;13.016;2022-12-07T07:59:43;7.53;;;2.07;;
419;SDS011;42600;54.408;13.016;2022-12-07T08:02:11;9.90;;;3.10;;
419;SDS011;42600;54.408;13.016;2022-12-07T08:04:40;13.47;;;4.23;;
419;SDS011;42600;54.408;13.016;2022-12-07T08:07:07;11.17;;;2.20;;
419;SDS011;42600;54.408;13.016;2022-12-07T08:09:33;12.87;;;3.40;;
419;SDS011;42600;54.408;13.016;2022-12-07T08:12:00;9.33;;;2.73;;
419;SDS011;42600;54.408;13.016;2022-12-07T08:14:28;10.57;;;3.77;;
419;SDS011;42600;54.408;13.016;2022-12-07T08:16:54;6.70;;;3.60;;
419;SDS011;42600;54.408;13.016;2022-12-07T08:19:21;8.40;;;3.90;;
419;SDS011;42600;54.408;13.016;2022-12-07T08:21:48;10.13;;;2.33;;
419;SDS011;42600;54.408;13.016;2022-12-07T08:24:14;5.07;;;1.93;;
419;SDS011;42600;54.408;13.016;2022-12-07T08:26:41;3.03;;;1.50;;
419;SDS011;42600;54.408;13.016;2022-12-07T08:29:08;8.50;;;3.53;;
419;SDS011;42600;54.408;13.016;2022-12-07T08:31:36;10.10;;;2.43;;
419;SDS011;42600;54.408;13.016;2022-12-07T08:34:04;2.83;;;1.90;;
419;SDS011;42600;54.408;13.016;2022-12-07T08:36:31;7.80;;;3.07;;
419;SDS011;42600;54.408;13.016;2022-12-07T08:38:57;5.93;;;2.87;;
419;SDS011;42600;54.408;13.016;2022-12-07T08:41:24;4.83;;;2.00;;
419;SDS011;42600;54.408;13.016;2022-12-07T08:43:51;4.80;;;2.47;;
419;SDS011;42600;54.408;13.016;2022-12-07T08:46:18;3.63;;;1.57;;
419;SDS011;42600;54.408;13.016;2022-12-07T08:48:50;2.80;;;1.27;;
419;SDS011;42600;54.408;13.016;2022-12-07T08:51:20;4.73;;;1.50;;
419;SDS011;42600;54.408;13.016;2022-12-07T08:53:47;5.43;;;1.47;;
419;SDS011;42600;54.408;13.016;2022-12-07T08:56:15;14.93;;;1.43;;
419;SDS011;42600;54.408;13.016;2022-12-07T08:58:41;6.50;;;2.93;;
419;SDS011;42600;54.408;13.016;2022-12-07T09:01:09;6.60;;;2.30;;
419;SDS011;42600;54.408;13.016;2022-12-07T09:03:36;14.23;;;2.30;;
419;SDS011;42600;54.408;13.016;2022-12-07T09:06:04;3.87;;;1.30;;
419;SDS011;42600;54.408;13.016;2022-12-07T09:08:33;7.90;;;2.60;;
419;SDS011;42600;54.408;13.016;2022-12-07T09:11:02;2.83;;;1.47;;
419;SDS011;42600;54.408;13.016;2022-12-07T09:13:29;7.20;;;1.60;;
419;SDS011;42600;54.408;13.016;2022-12-07T09:15:55;6.83;;;2.70;;
419;SDS011;42600;54.408;13.016;2022-12-07T09:18:22;4.77;;;2.13;;
419;SDS011;42600;54.408;13.016;2022-12-07T09:20:49;2.40;;;1.37;;
419;SDS011;42600;54.408;13.016;2022-12-07T09:23:17;2.70;;;1.17;;
419;SDS011;42600;54.408;13.016;2022-12-07T09:25:44;12.40;;;3.17;;
419;SDS011;42600;54.408;13.016;2022-12-07T09:28:11;3.03;;;1.67;;
419;SDS011;42600;54.408;13.016;2022-12-07T09:30:37;2.33;;;1.53;;
419;SDS011;42600;54.408;13.016;2022-12-07T09:33:04;1.60;;;1.03;;
419;SDS011;42600;54.408;13.016;2022-12-07T09:35:31;3.20;;;1.40;;
419;SDS011;42600;54.408;13.016;2022-12-07T09:37:58;6.07;;;1.97;;
419;SDS011;42600;54.408;13.016;2022-12-07T09:40:26;11.73;;;1.73;;
419;SDS011;42600;54.408;13.016;2022-12-07T09:42:54;1.50;;;0.80;;
419;SDS011;42600;54.408;13.016;2022-12-07T09:45:22;1.93;;;0.90;;
419;SDS011;42600;54.408;13.016;2022-12-07T09:47:50;1.47;;;0.87;;
419;SDS011;42600;54.408;13.016;2022-12-07T09:50:19;1.67;;;1.27;;
419;SDS011;42600;54.408;13.016;2022-12-07T09:52:47;3.90;;;1.07;;
419;SDS011;42600;54.408;13.016;2022-12-07T09:55:16;2.73;;;1.00;;
419;SDS011;42600;54.408;13.016;2022-12-07T09:57:51;3.43;;;0.67;;
419;SDS011;42600;54.408;13.016;2022-12-07T10:00:19;1.00;;;0.57;;
419;SDS011;42600;54.408;13.016;2022-12-07T10:02:50;3.37;;;0.77;;
419;SDS011;42600;54.408;13.016;2022-12-07T10:05:21;3.70;;;1.53;;
419;SDS011;42600;54.408;13.016;2022-12-07T10:07:51;1.63;;;1.20;;
419;SDS011;42600;54.408;13.016;2022-12-07T10:10:19;1.00;;;0.50;;
419;SDS011;42600;54.408;13.016;2022-12-07T10:12:53;4.23;;;1.30;;
419;SDS011;42600;54.408;13.016;2022-12-07T10:15:22;3.33;;;1.33;;
419;SDS011;42600;54.408;13.016;2022-12-07T10:17:49;2.23;;;0.90;;
419;SDS011;42600;54.408;13.016;2022-12-07T10:20:19;2.17;;;0.80;;
419;SDS011;42600;54.408;13.016;2022-12-07T10:22:55;1.23;;;0.73;;
419;SDS011;42600;54.408;13.016;2022-12-07T10:25:25;2.33;;;1.10;;
419;SDS011;42600;54.408;13.016;2022-12-07T10:27:58;1.00;;;0.70;;
419;SDS011;42600;54.408;13.016;2022-12-07T10:30:27;1.00;;;0.57;;
419;SDS011;42600;54.408;13.016;2022-12-07T10:32:53;1.57;;;1.07;;
419;SDS011;42600;54.408;13.016;2022-12-07T10:35:21;3.10;;;1.30;;
419;SDS011;42600;54.408;13.016;2022-12-07T10:37:51;0.90;;;0.50;;
419;SDS011;42600;54.408;13.016;2022-12-07T10:40:29;1.10;;;0.70;;
419;SDS011;42600;54.408;13.016;2022-12-07T10:43:04;0.80;;;0.40;;
419;SDS011;42600;54.408;13.016;2022-12-07T10:45:43;1.10;;;0.50;;
419;SDS011;42600;54.408;13.016;2022-12-07T10:48:34;3.67;;;0.97;;
419;SDS011;42600;54.408;13.016;2022-12-07T10:51:07;1.30;;;0.60;;
419;SDS011;42600;54.408;13.016;2022-12-07T10:53:44;1.10;;;0.67;;
419;SDS011;42600;54.408;13.016;2022-12-07T10:56:29;1.00;;;0.47;;
419;SDS011;42600;54.408;13.016;2022-12-07T10:59:38;4.47;;;2.23;;
419;SDS011;42600;54.408;13.016;2022-12-07T11:02:25;0.87;;;0.47;;
419;SDS011;42600;54.408;13.016;2022-12-07T11:05:14;1.40;;;0.73;;
419;SDS011;42600;54.408;13.016;2022-12-07T11:07:47;1.40;;;0.90;;
419;SDS011;42600;54.408;13.016;2022-12-07T11:10:24;0.90;;;0.40;;
419;SDS011;42600;54.408;13.016;2022-12-07T11:12:59;0.90;;;0.40;;
419;SDS011;42600;54.408;13.016;2022-12-07T11:15:46;0.80;;;0.37;;
419;SDS011;42600;54.408;13.016;2022-12-07T11:18:24;1.10;;;0.70;;
419;SDS011;42600;54.408;13.016;2022-12-07T11:20:57;1.00;;;0.60;;
419;SDS011;42600;54.408;13.016;2022-12-07T11:23:31;2.70;;;0.97;;
419;SDS011;42600;54.408;13.016;2022-12-07T11:26:11;7.30;;;2.70;;
419;SDS011;42600;54.408;13.016;2022-12-07T11:28:50;1.60;;;0.50;;
419;SDS011;42600;54.408;13.016;2022-12-07T11:31:32;0.90;;;0.60;;
419;SDS011;42600;54.408;13.016;2022-12-07T11:34:12;3.67;;;1.10;;
419;SDS011;42600;54.408;13.016;2022-12-07T11:36:45;3.03;;;0.70;;
419;SDS011;42600;54.408;13.016;2022-12-07T11:39:19;1.33;;;0.93;;
419;SDS011;42600;54.408;13.016;2022-12-07T11:41:52;8.60;;;1.37;;
419;SDS011;42600;54.408;13.016;2022-12-07T11:44:25;5.00;;;0.90;;
419;SDS011;42600;54.408;13.016;2022-12-07T11:46:59;1.20;;;0.63;;
419;SDS011;42600;54.408;13.016;2022-12-07T11:49:37;1.10;;;0.60;;
419;SDS011;42600;54.408;13.016;2022-12-07T11:52:11;1.00;;;0.50;;
419;SDS011;42600;54.408;13.016;2022-12-07T11:54:46;1.00;;;0.53;;
419;SDS011;42600;54.408;13.016;2022-12-07T11:57:18;1.67;;;0.53;;
419;SDS011;42600;54.408;13.016;2022-12-07T11:59:51;1.43;;;1.07;;
419;SDS011;42600;54.408;13.016;2022-12-07T12:02:26;0.90;;;0.43;;
419;SDS011;42600;54.408;13.016;2022-12-07T12:04:58;1.03;;;0.63;;
419;SDS011;42600;54.408;13.016;2022-12-07T12:07:31;2.90;;;0.80;;
419;SDS011;42600;54.408;13.016;2022-12-07T12:09:59;1.43;;;0.73;;
419;SDS011;42600;54.408;13.016;2022-12-07T12:15:23;0.90;;;0.40;;
419;SDS011;42600;54.408;13.016;2022-12-07T12:18:05;1.83;;;0.87;;
419;SDS011;42600;54.408;13.016;2022-12-07T12:20:46;1.90;;;0.80;;
419;SDS011;42600;54.408;13.016;2022-12-07T12:23:16;1.40;;;0.90;;
419;SDS011;42600;54.408;13.016;2022-12-07T12:25:46;1.20;;;0.50;;
419;SDS011;42600;54.408;13.016;2022-12-07T12:28:18;1.47;;;0.60;;
419;SDS011;42600;54.408;13.016;2022-12-07T12:31:04;1.60;;;0.70;;
419;SDS011;42600;54.408;13.016;2022-12-07T12:33:34;0.90;;;0.40;;
419;SDS011;42600;54.408;13.016;2022-12-07T12:36:22;1.27;;;0.97;;
419;SDS011;42600;54.408;13.016;2022-12-07T12:38:51;1.10;;;0.70;;
419;SDS011;42600;54.408;13.016;2022-12-07T12:41:52;0.80;;;0.40;;
419;SDS011;42600;54.408;13.016;2022-12-07T12:44:38;2.07;;;0.67;;
419;SDS011;42600;54.408;13.016;2022-12-07T12:47:37;0.80;;;0.40;;
419;SDS011;42600;54.408;13.016;2022-12-07T12:50:18;0.80;;;0.37;;
419;SDS011;42600;54.408;13.016;2022-12-07T12:55:58;0.97;;;0.47;;
419;SDS011;42600;54.408;13.016;2022-12-07T12:58:40;5.90;;;1.37;;
419;SDS011;42600;54.408;13.016;2022-12-07T13:10:22;1.13;;;0.50;;
419;SDS011;42600;54.408;13.016;2022-12-07T13:12:57;2.20;;;0.93;;
419;SDS011;42600;54.408;13.016;2022-12-07T13:15:31;1.30;;;0.40;;
419;SDS011;42600;54.408;13.016;2022-12-07T13:18:03;0.90;;;0.40;;
419;SDS011;42600;54.408;13.016;2022-12-07T13:21:01;1.00;;;0.57;;
419;SDS011;42600;54.408;13.016;2022-12-07T13:23:55;0.90;;;0.40;;
419;SDS011;42600;54.408;13.016;2022-12-07T13:26:26;3.10;;;0.80;;
419;SDS011;42600;54.408;13.016;2022-12-07T13:29:05;3.13;;;0.60;;
419;SDS011;42600;54.408;13.016;2022-12-07T13:31:37;1.50;;;0.80;;
419;SDS011;42600;54.408;13.016;2022-12-07T13:36:55;1.10;;;0.60;;
419;SDS011;42600;54.408;13.016;2022-12-07T13:39:24;1.10;;;0.50;;
419;SDS011;42600;54.408;13.016;2022-12-07T13:41:52;1.40;;;0.90;;
419;SDS011;42600;54.408;13.016;2022-12-07T13:44:20;0.87;;;0.40;;
419;SDS011;42600;54.408;13.016;2022-12-07T13:46:49;1.27;;;0.63;;
419;SDS011;42600;54.408;13.016;2022-12-07T13:49:21;0.83;;;0.37;;
419;SDS011;42600;54.408;13.016;2022-12-07T13:51:50;1.47;;;0.63;;
419;SDS011;42600;54.408;13.016;2022-12-07T13:54:17;1.10;;;0.60;;
419;SDS011;42600;54.408;13.016;2022-12-07T13:56:46;1.30;;;0.67;;
419;SDS011;42600;54.408;13.016;2022-12-07T13:59:17;1.10;;;0.50;;
419;SDS011;42600;54.408;13.016;2022-12-07T14:01:45;0.90;;;0.40;;
419;SDS011;42600;54.408;13.016;2022-12-07T14:04:29;4.27;;;0.83;;
419;SDS011;42600;54.408;13.016;2022-12-07T14:06:58;1.20;;;0.50;;
419;SDS011;42600;54.408;13.016;2022-12-07T14:09:26;1.00;;;0.50;;
419;SDS011;42600;54.408;13.016;2022-12-07T14:11:56;1.07;;;0.63;;
419;SDS011;42600;54.408;13.016;2022-12-07T14:14:24;1.97;;;1.07;;
419;SDS011;42600;54.408;13.016;2022-12-07T14:16:58;1.20;;;0.50;;
419;SDS011;42600;54.408;13.016;2022-12-07T14:22:20;1.10;;;0.40;;
419;SDS011;42600;54.408;13.016;2022-12-07T14:24:58;18.73;;;0.97;;
419;SDS011;42600;54.408;13.016;2022-12-07T14:27:47;2.53;;;0.70;;
419;SDS011;42600;54.408;13.016;2022-12-07T14:30:22;1.00;;;0.50;;
419;SDS011;42600;54.408;13.016;2022-12-07T14:32:51;0.83;;;0.37;;
419;SDS011;42600;54.408;13.016;2022-12-07T14:35:19;1.30;;;0.50;;
419;SDS011;42600;54.408;13.016;2022-12-07T14:37:47;1.00;;;0.53;;
419;SDS011;42600;54.408;13.016;2022-12-07T14:40:16;0.80;;;0.40;;
419;SDS011;42600;54.408;13.016;2022-12-07T14:42:45;1.00;;;0.50;;
419;SDS011;42600;54.408;13.016;2022-12-07T14:45:14;1.60;;;0.40;;
419;SDS011;42600;54.408;13.016;2022-12-07T14:47:42;5.90;;;0.60;;
419;SDS011;42600;54.408;13.016;2022-12-07T14:50:11;0.90;;;0.40;;
419;SDS011;42600;54.408;13.016;2022-12-07T14:52:38;0.80;;;0.40;;
419;SDS011;42600;54.408;13.016;2022-12-07T14:55:08;0.80;;;0.30;;
419;SDS011;42600;54.408;13.016;2022-12-07T14:57:40;1.00;;;0.50;;
419;SDS011;42600;54.408;13.016;2022-12-07T15:00:09;1.93;;;1.03;;
419;SDS011;42600;54.408;13.016;2022-12-07T15:02:39;1.10;;;0.50;;
419;SDS011;42600;54.408;13.016;2022-12-07T15:05:06;0.80;;;0.40;;
419;SDS011;42600;54.408;13.016;2022-12-07T15:07:33;0.90;;;0.40;;
419;SDS011;42600;54.408;13.016;2022-12-07T15:10:00;0.80;;;0.40;;
419;SDS011;42600;54.408;13.016;2022-12-07T15:12:26;1.90;;;0.77;;
419;SDS011;42600;54.408;13.016;2022-12-07T15:14:53;1.50;;;0.70;;
419;SDS011;42600;54.408;13.016;2022-12-07T15:17:21;0.80;;;0.30;;
419;SDS011;42600;54.408;13.016;2022-12-07T15:19:48;4.83;;;1.33;;
419;SDS011;42600;54.408;13.016;2022-12-07T15:22:14;1.13;;;0.60;;
419;SDS011;42600;54.408;13.016;2022-12-07T15:24:41;1.00;;;0.53;;
419;SDS011;42600;54.408;13.016;2022-12-07T15:27:07;0.83;;;0.37;;
419;SDS011;42600;54.408;13.016;2022-12-07T15:29:34;1.20;;;0.97;;
419;SDS011;42600;54.408;13.016;2022-12-07T15:32:00;2.77;;;0.90;;
419;SDS011;42600;54.408;13.016;2022-12-07T15:34:28;1.10;;;0.50;;
419;SDS011;42600;54.408;13.016;2022-12-07T15:36:56;3.80;;;0.47;;
419;SDS011;42600;54.408;13.016;2022-12-07T15:39:23;1.20;;;0.50;;